Janet — 9HSL8 — position and weather

sailwx.info

Track history (hours):
 
Tides and Currents Weather Stations Pressure Air Temp Water Temp Dewpoint Dewpoint Depression Visibility Wind Speed Wind Dir Waves Ship Positions

Janet

Last reported at 2016-Apr-30 04:12 UTC. Time now 2016-May-05 01:01 UTC.
Position N 49°48' W 003°24'.

Length 90 m; draft 4.9 m.

Type: Cargo ship. MMSI: 256371000.

Date/timePositionNaut miles runAvg speedWind from/ knotsBaromVisibWave heightAir tempDewpointWater temp
2016-Apr-30 04:12N 49°48' W 003°24'711.0
2016-Apr-30 03:33N 49°52' W 003°15'1110.6
2016-Apr-30 02:33N 49°57' W 003°01'10 9.8
2016-Apr-30 01:33N 50°00' W 002°46'10210.2
2016-Apr-29 15:31N 50°28' W 000°12'8 8.8
2016-Apr-29 14:33N 50°30' E 000°01'8 8.2
2016-Apr-29 13:33N 50°32' E 000°13'8 7.8
2016-Apr-29 12:33N 50°34' E 000°25'37 9.3
2016-Apr-29 08:33N 50°56' E 001°13'11 9.7
2016-Apr-29 07:23N 51°03' E 001°27'7 8.1
2016-Apr-29 06:33N 51°08' E 001°34'7 7.0
2016-Apr-29 05:33N 51°15' E 001°38'7 7.5
2016-Apr-29 04:33N 51°22' E 001°36'7 7.3
2016-Apr-29 03:33N 51°29' E 001°35'10 9.8
2016-Apr-29 02:33N 51°37' E 001°45'1110.6
2016-Apr-29 01:33N 51°48' E 001°43'9 9.1
2016-Apr-29 00:33N 51°55' E 001°34'7 7.3
2016-Apr-28 23:33N 51°56' E 001°22'3 2.5
2016-Apr-28 22:31N 51°57' E 001°19'0 0.0
2016-Apr-28 21:31N 51°57' E 001°19'0 0.0
2016-Apr-28 20:31N 51°57' E 001°19'0 0.0
2016-Apr-28 19:31N 51°57' E 001°19'0 0.0
2016-Apr-28 18:31N 51°57' E 001°19'0 0.0
2016-Apr-28 17:31N 51°57' E 001°19'0 0.0
2016-Apr-28 16:31N 51°57' E 001°19'0 0.0
2016-Apr-28 15:31N 51°57' E 001°19'0 0.0
2016-Apr-28 14:31N 51°57' E 001°19'0 0.0
2016-Apr-28 13:31N 51°57' E 001°19'0 0.0
2016-Apr-28 12:31N 51°57' E 001°19'0 0.0
2016-Apr-28 11:31N 51°57' E 001°19'0 0.0
2016-Apr-28 10:31N 51°57' E 001°19'0 0.0
2016-Apr-28 09:31N 51°57' E 001°19'0 0.0
2016-Apr-28 08:31N 51°57' E 001°19'0 0.0
2016-Apr-28 07:31N 51°57' E 001°19'0 0.0
2016-Apr-28 06:31N 51°57' E 001°19'0 0.0
2016-Apr-28 05:31N 51°57' E 001°19'0 0.0
2016-Apr-28 04:31N 51°57' E 001°19'0 0.0
2016-Apr-28 03:31N 51°57' E 001°19'0 0.0
2016-Apr-28 02:31N 51°57' E 001°19'0 0.0
2016-Apr-28 01:31N 51°57' E 001°19'0 0.0
2016-Apr-28 00:31N 51°57' E 001°19'0 0.0
2016-Apr-27 23:31N 51°57' E 001°19'0 0.0
2016-Apr-27 22:31N 51°57' E 001°19'0 0.0
2016-Apr-27 21:31N 51°57' E 001°19'0 0.0
2016-Apr-27 20:31N 51°57' E 001°19'0 0.0
2016-Apr-27 19:31N 51°57' E 001°19'0 0.0
2016-Apr-27 18:31N 51°57' E 001°19'0 0.0
2016-Apr-27 17:31N 51°57' E 001°19'0 0.0
2016-Apr-27 16:31N 51°57' E 001°19'0 0.0
2016-Apr-27 15:31N 51°57' E 001°19'0 0.0
2016-Apr-27 14:31N 51°57' E 001°19'0 0.0
2016-Apr-27 13:31N 51°57' E 001°19'0 0.0
2016-Apr-27 12:31N 51°57' E 001°19'0 0.0
2016-Apr-27 11:31N 51°57' E 001°19'0 0.0
2016-Apr-27 10:31N 51°57' E 001°19'0 0.0
2016-Apr-27 09:31N 51°57' E 001°19'0 0.0
2016-Apr-27 08:31N 51°57' E 001°19'0 0.0
2016-Apr-27 07:31N 51°57' E 001°19'3 2.7
2016-Apr-27 06:33N 51°56' E 001°22'7 7.3
2016-Apr-27 05:33N 51°56' E 001°34'5 5.3
2016-Apr-27 04:33N 51°51' E 001°39'6 6.3
2016-Apr-27 03:33N 51°49' E 001°48'8 7.8
2016-Apr-27 02:33N 51°41' E 001°49'15 7.5
2016-Apr-27 00:33N 51°26' E 001°47'8 7.9
2016-Apr-26 23:33N 51°19' E 001°42'7 7.2
2016-Apr-26 22:33N 51°12' E 001°38'7 6.7
2016-Apr-26 21:33N 51°06' E 001°42'1010.0
2016-Apr-26 20:33N 51°03' E 001°57'1111.4
2016-Apr-26 19:33N 51°04' E 002°15'4 3.5
2016-Apr-26 18:32N 51°03' E 002°21'6 0.2
2016-Apr-25 08:31N 51°03' E 002°11'8 8.7
2016-Apr-25 07:33N 51°02' E 001°58'9 8.7
2016-Apr-25 06:33N 51°01' E 001°44'9 9.0
2016-Apr-25 05:33N 50°56' E 001°32'54 9.9
2016-Apr-25 00:05N 50°23' E 000°26'611.7
2016-Apr-24 23:34N 50°21' E 000°17'1312.5
2016-Apr-24 22:31N 50°17' W 000°03'  
2016-Apr-21 11:33N 43°40' W 005°56'1110.8
2016-Apr-21 10:33N 43°41' W 005°41'1111.3
2016-Apr-21 09:33N 43°40' W 005°26'1111.2
2016-Apr-21 08:33N 43°39' W 005°10'  
Track history (hours):
 
Tides and Currents Weather Stations Pressure Air Temp Water Temp Dewpoint Dewpoint Depression Visibility Wind Speed Wind Dir Waves Ship Positions

Janet

Last reported at 2016-Apr-30 04:12 UTC. Time now 2016-May-05 01:01 UTC.
Position N 49°48' W 003°24'.

Length 90 m; draft 4.9 m.

Type: Cargo ship. MMSI: 256371000.

Date/timePositionNaut miles runAvg speedWind from/ knotsBaromVisibWave heightAir tempDewpointWater temp
2016-Apr-30 04:12N 49°48' W 003°24'711.0
2016-Apr-30 03:33N 49°52' W 003°15'1110.6
2016-Apr-30 02:33N 49°57' W 003°01'10 9.8
2016-Apr-30 01:33N 50°00' W 002°46'10210.2
2016-Apr-29 15:31N 50°28' W 000°12'8 8.8
2016-Apr-29 14:33N 50°30' E 000°01'8 8.2
2016-Apr-29 13:33N 50°32' E 000°13'8 7.8
2016-Apr-29 12:33N 50°34' E 000°25'37 9.3
2016-Apr-29 08:33N 50°56' E 001°13'11 9.7
2016-Apr-29 07:23N 51°03' E 001°27'7 8.1
2016-Apr-29 06:33N 51°08' E 001°34'7 7.0
2016-Apr-29 05:33N 51°15' E 001°38'7 7.5
2016-Apr-29 04:33N 51°22' E 001°36'7 7.3
2016-Apr-29 03:33N 51°29' E 001°35'10 9.8
2016-Apr-29 02:33N 51°37' E 001°45'1110.6
2016-Apr-29 01:33N 51°48' E 001°43'9 9.1
2016-Apr-29 00:33N 51°55' E 001°34'7 7.3
2016-Apr-28 23:33N 51°56' E 001°22'3 2.5
2016-Apr-28 22:31N 51°57' E 001°19'0 0.0
2016-Apr-28 21:31N 51°57' E 001°19'0 0.0
2016-Apr-28 20:31N 51°57' E 001°19'0 0.0
2016-Apr-28 19:31N 51°57' E 001°19'0 0.0
2016-Apr-28 18:31N 51°57' E 001°19'0 0.0
2016-Apr-28 17:31N 51°57' E 001°19'0 0.0
2016-Apr-28 16:31N 51°57' E 001°19'0 0.0
2016-Apr-28 15:31N 51°57' E 001°19'0 0.0
2016-Apr-28 14:31N 51°57' E 001°19'0 0.0
2016-Apr-28 13:31N 51°57' E 001°19'0 0.0
2016-Apr-28 12:31N 51°57' E 001°19'0 0.0
2016-Apr-28 11:31N 51°57' E 001°19'0 0.0
2016-Apr-28 10:31N 51°57' E 001°19'0 0.0
2016-Apr-28 09:31N 51°57' E 001°19'0 0.0
2016-Apr-28 08:31N 51°57' E 001°19'0 0.0
2016-Apr-28 07:31N 51°57' E 001°19'0 0.0
2016-Apr-28 06:31N 51°57' E 001°19'0 0.0
2016-Apr-28 05:31N 51°57' E 001°19'0 0.0
2016-Apr-28 04:31N 51°57' E 001°19'0 0.0
2016-Apr-28 03:31N 51°57' E 001°19'0 0.0
2016-Apr-28 02:31N 51°57' E 001°19'0 0.0
2016-Apr-28 01:31N 51°57' E 001°19'0 0.0
2016-Apr-28 00:31N 51°57' E 001°19'0 0.0
2016-Apr-27 23:31N 51°57' E 001°19'0 0.0
2016-Apr-27 22:31N 51°57' E 001°19'0 0.0
2016-Apr-27 21:31N 51°57' E 001°19'0 0.0
2016-Apr-27 20:31N 51°57' E 001°19'0 0.0
2016-Apr-27 19:31N 51°57' E 001°19'0 0.0
2016-Apr-27 18:31N 51°57' E 001°19'0 0.0
2016-Apr-27 17:31N 51°57' E 001°19'0 0.0
2016-Apr-27 16:31N 51°57' E 001°19'0 0.0
2016-Apr-27 15:31N 51°57' E 001°19'0 0.0
2016-Apr-27 14:31N 51°57' E 001°19'0 0.0
2016-Apr-27 13:31N 51°57' E 001°19'0 0.0
2016-Apr-27 12:31N 51°57' E 001°19'0 0.0
2016-Apr-27 11:31N 51°57' E 001°19'0 0.0
2016-Apr-27 10:31N 51°57' E 001°19'0 0.0
2016-Apr-27 09:31N 51°57' E 001°19'0 0.0
2016-Apr-27 08:31N 51°57' E 001°19'0 0.0
2016-Apr-27 07:31N 51°57' E 001°19'3 2.7
2016-Apr-27 06:33N 51°56' E 001°22'7 7.3
2016-Apr-27 05:33N 51°56' E 001°34'5 5.3
2016-Apr-27 04:33N 51°51' E 001°39'6 6.3
2016-Apr-27 03:33N 51°49' E 001°48'8 7.8
2016-Apr-27 02:33N 51°41' E 001°49'15 7.5
2016-Apr-27 00:33N 51°26' E 001°47'8 7.9
2016-Apr-26 23:33N 51°19' E 001°42'7 7.2
2016-Apr-26 22:33N 51°12' E 001°38'7 6.7
2016-Apr-26 21:33N 51°06' E 001°42'1010.0
2016-Apr-26 20:33N 51°03' E 001°57'1111.4
2016-Apr-26 19:33N 51°04' E 002°15'4 3.5
2016-Apr-26 18:32N 51°03' E 002°21'6 0.2
2016-Apr-25 08:31N 51°03' E 002°11'8 8.7
2016-Apr-25 07:33N 51°02' E 001°58'9 8.7
2016-Apr-25 06:33N 51°01' E 001°44'9 9.0
2016-Apr-25 05:33N 50°56' E 001°32'54 9.9
2016-Apr-25 00:05N 50°23' E 000°26'611.7
2016-Apr-24 23:34N 50°21' E 000°17'1312.5
2016-Apr-24 22:31N 50°17' W 000°03'  
2016-Apr-21 11:33N 43°40' W 005°56'1110.8
2016-Apr-21 10:33N 43°41' W 005°41'1111.3
2016-Apr-21 09:33N 43°40' W 005°26'1111.2
2016-Apr-21 08:33N 43°39' W 005°10'  

Dump ship's entire track history